ALWWALLA WALLA RGNL
METARs for airports near ALW, sorted by distance:
N 0 nm 1194' KALW 080753Z 11005KT 10SM CLR 21/03 A2995
SW 33 nm 1496' KPDT 080753Z 13010KT 10SM CLR 21/03 A2998
W 36 nm 410' KPSC 080753Z 34005KT 10SM CLR 16/12 A2992
W 43 nm 644' KHRI 080753Z 14003KT 10SM CLR 17/05 A2993
W 44 nm 394' KRLD 080755Z 00000KT 10SM CLR 17/10 A2992
S 49 nm 2717' KLGD 080756Z 32003KT 10SM CLR 14/04 A3007
E 55 nm 1442' KLWS 080756Z 15004KT 10SM CLR 21/01 A2997
SE 61 nm 4126' KJSY 080755Z 10SM CLR 14/01 A3015
NE 62 nm 2566' KPUW 080753Z 00000KT 10SM CLR 14/04 A3005
S 77 nm 3373' KBKE 080753Z 00000KT 10SM CLR 12/06 A3011
NW 79 nm 1188' KMWH 080752Z 00000KT 10SM 20/08 A2995
NW 88 nm 1276' KEPH 080753Z 00000KT 10SM CLR 18/01 A2994
E 90 nm 3313' KGIC 080755Z 19003KT 10SM CLR 14/00 A3008
N 95 nm 2462' KSKA 080758Z 00000KT 9SM CLR 18/02 A3001
N 96 nm 2385' KGEG 080753Z 00000KT 10SM CLR 22/03 A3002
W 97 nm 1098' KYKM 080753Z 28005KT 10SM CLR 16/07 A2997
TAFs for airports near ALW, sorted by distance:
N 0 nm 1194' KALW TAF KALW 080520Z 0806/0906 15009KT P6SM FEW250
  FM081800 26005KT P6SM FEW250
  FM090000 33005KT P6SM FEW250
SW 33 nm 1496' KPDT TAF KPDT 080520Z 0806/0906 13007KT P6SM SKC
  FM081900 34007KT P6SM FEW250
  FM090000 03008KT P6SM FEW250
W 36 nm 410' KPSC TAF KPSC 080520Z 0806/0906 VRB04KT P6SM FEW250
E 55 nm 1442' KLWS TAF KLWS 080520Z 0806/0906 08008KT P6SM SKC
  FM081800 34004KT P6SM SKC
  FM082200 VRB04KT P6SM SKC
NE 62 nm 2566' KPUW TAF KPUW 080520Z 0806/0906 VRB03KT P6SM SKC
  FM081100 12006KT P6SM SKC
S 77 nm 3373' KBKE TAF KBKE 080520Z 0806/0906 VRB05KT P6SM SKC
  FM081900 17011KT P6SM SCT120
  FM090200 VRB06KT P6SM SCT120
NW 79 nm 1188' KMWH TAF KMWH 080520Z 0806/0906 27004KT P6SM SKC
  FM082100 20007KT P6SM SKC
  FM090300 18006KT P6SM SKC
N 95 nm 2462' KSKA TAF KSKA 080300Z 0803/0909 20008KT 9999 SKC QNH3005INS
  BECMG 0901/0902 23009KT 9999 BKN130 QNH2993INS TX29/0803Z TN15/0812Z
N 96 nm 2385' KGEG TAF KGEG 080520Z 0806/0906 19005KT P6SM SKC
  FM080800 11004KT P6SM SKC
  FM082000 20008KT P6SM SKC
  FM090000 24007KT P6SM FEW250
W 97 nm 1098' KYKM TAF KYKM 080520Z 0806/0906 26007KT P6SM FEW250
  FM082100 14005KT P6SM FEW250
  FM090300 34006KT P6SM FEW250

Shortcut to this page: http://wxbay.com.

Data may contain errors.